sensor_id;sensor_type;location;lat;lon;timestamp;temperature;humidity
37658;DHT22;23500;53.268;8.308;2022-09-27T00:02:15;16.70;76.00
37658;DHT22;23500;53.268;8.308;2022-09-27T00:04:41;16.70;76.10
37658;DHT22;23500;53.268;8.308;2022-09-27T00:07:07;16.70;76.10
37658;DHT22;23500;53.268;8.308;2022-09-27T00:09:34;16.70;76.10
37658;DHT22;23500;53.268;8.308;2022-09-27T00:12:01;16.70;76.20
37658;DHT22;23500;53.268;8.308;2022-09-27T00:14:26;16.70;76.20
37658;DHT22;23500;53.268;8.308;2022-09-27T00:16:52;16.70;76.10
37658;DHT22;23500;53.268;8.308;2022-09-27T00:19:20;16.70;76.10
37658;DHT22;23500;53.268;8.308;2022-09-27T00:21:48;16.70;76.30
37658;DHT22;23500;53.268;8.308;2022-09-27T00:24:21;16.70;76.10
37658;DHT22;23500;53.268;8.308;2022-09-27T00:26:48;16.70;76.20
37658;DHT22;23500;53.268;8.308;2022-09-27T00:29:16;16.70;76.10
37658;DHT22;23500;53.268;8.308;2022-09-27T00:31:43;16.70;76.00
37658;DHT22;23500;53.268;8.308;2022-09-27T00:34:18;16.70;76.00
37658;DHT22;23500;53.268;8.308;2022-09-27T00:36:44;16.70;76.50
37658;DHT22;23500;53.268;8.308;2022-09-27T00:39:09;16.70;76.50
37658;DHT22;23500;53.268;8.308;2022-09-27T00:41:36;16.80;76.60
37658;DHT22;23500;53.268;8.308;2022-09-27T00:52:20;16.80;76.30
37658;DHT22;23500;53.268;8.308;2022-09-27T00:54:56;16.80;76.10
37658;DHT22;23500;53.268;8.308;2022-09-27T00:57:23;16.80;75.90
37658;DHT22;23500;53.268;8.308;2022-09-27T01:00:05;16.80;76.20
37658;DHT22;23500;53.268;8.308;2022-09-27T01:02:32;16.80;76.00
37658;DHT22;23500;53.268;8.308;2022-09-27T01:05:00;16.80;76.30
37658;DHT22;23500;53.268;8.308;2022-09-27T01:07:25;16.80;76.30
37658;DHT22;23500;53.268;8.308;2022-09-27T01:09:51;16.80;77.20
37658;DHT22;23500;53.268;8.308;2022-09-27T01:12:25;16.80;76.30
37658;DHT22;23500;53.268;8.308;2022-09-27T01:41:37;16.80;76.40
37658;DHT22;23500;53.268;8.308;2022-09-27T01:44:12;16.80;76.00
37658;DHT22;23500;53.268;8.308;2022-09-27T01:46:43;16.80;76.20
37658;DHT22;23500;53.268;8.308;2022-09-27T01:49:28;16.80;76.20
37658;DHT22;23500;53.268;8.308;2022-09-27T01:52:00;16.80;75.70
37658;DHT22;23500;53.268;8.308;2022-09-27T01:54:41;16.80;75.90
37658;DHT22;23500;53.268;8.308;2022-09-27T01:57:09;16.80;75.90
37658;DHT22;23500;53.268;8.308;2022-09-27T02:00:06;16.80;75.90
37658;DHT22;23500;53.268;8.308;2022-09-27T02:02:36;16.80;75.70
37658;DHT22;23500;53.268;8.308;2022-09-27T02:05:06;16.80;75.70
37658;DHT22;23500;53.268;8.308;2022-09-27T02:07:57;16.80;75.90
37658;DHT22;23500;53.268;8.308;2022-09-27T02:10:28;16.80;75.70
37658;DHT22;23500;53.268;8.308;2022-09-27T02:13:02;16.80;76.50
37658;DHT22;23500;53.268;8.308;2022-09-27T02:15:38;16.70;76.20
37658;DHT22;23500;53.268;8.308;2022-09-27T02:21:14;16.80;76.30
37658;DHT22;23500;53.268;8.308;2022-09-27T02:23:53;16.80;76.30
37658;DHT22;23500;53.268;8.308;2022-09-27T02:26:26;16.80;76.40
37658;DHT22;23500;53.268;8.308;2022-09-27T02:29:52;16.80;77.00
37658;DHT22;23500;53.268;8.308;2022-09-27T02:31:50;16.80;76.30
37658;DHT22;23500;53.268;8.308;2022-09-27T02:34:25;16.80;76.30
37658;DHT22;23500;53.268;8.308;2022-09-27T02:36:51;16.80;76.40
37658;DHT22;23500;53.268;8.308;2022-09-27T02:39:21;16.80;75.90
37658;DHT22;23500;53.268;8.308;2022-09-27T02:41:46;16.80;75.70
37658;DHT22;23500;53.268;8.308;2022-09-27T02:44:14;16.80;76.00
37658;DHT22;23500;53.268;8.308;2022-09-27T02:47:01;16.80;75.80
37658;DHT22;23500;53.268;8.308;2022-09-27T02:58:55;16.70;75.30
37658;DHT22;23500;53.268;8.308;2022-09-27T03:04:06;16.70;75.60
37658;DHT22;23500;53.268;8.308;2022-09-27T03:06:35;16.70;75.70
37658;DHT22;23500;53.268;8.308;2022-09-27T03:09:02;16.70;75.50
37658;DHT22;23500;53.268;8.308;2022-09-27T03:11:28;16.70;75.90
37658;DHT22;23500;53.268;8.308;2022-09-27T03:13:53;16.70;76.00
37658;DHT22;23500;53.268;8.308;2022-09-27T03:16:19;16.70;76.30
37658;DHT22;23500;53.268;8.308;2022-09-27T03:18:45;16.70;76.50
37658;DHT22;23500;53.268;8.308;2022-09-27T03:21:10;16.70;76.70
37658;DHT22;23500;53.268;8.308;2022-09-27T03:23:36;16.70;76.70
37658;DHT22;23500;53.268;8.308;2022-09-27T03:26:02;16.70;76.70
37658;DHT22;23500;53.268;8.308;2022-09-27T03:28:28;16.80;76.60
37658;DHT22;23500;53.268;8.308;2022-09-27T03:30:54;16.70;76.70
37658;DHT22;23500;53.268;8.308;2022-09-27T03:33:20;16.80;76.50
37658;DHT22;23500;53.268;8.308;2022-09-27T03:35:45;16.80;76.60
37658;DHT22;23500;53.268;8.308;2022-09-27T03:38:12;16.80;76.60
37658;DHT22;23500;53.268;8.308;2022-09-27T03:40:38;16.80;76.40
37658;DHT22;23500;53.268;8.308;2022-09-27T03:43:04;16.80;76.30
37658;DHT22;23500;53.268;8.308;2022-09-27T03:45:29;16.80;76.50
37658;DHT22;23500;53.268;8.308;2022-09-27T03:47:55;16.80;76.20
37658;DHT22;23500;53.268;8.308;2022-09-27T03:50:21;16.80;76.40
37658;DHT22;23500;53.268;8.308;2022-09-27T03:52:46;16.80;76.40
37658;DHT22;23500;53.268;8.308;2022-09-27T03:55:12;16.80;76.40
37658;DHT22;23500;53.268;8.308;2022-09-27T03:57:38;16.80;76.50
37658;DHT22;23500;53.268;8.308;2022-09-27T04:00:05;16.80;76.60
37658;DHT22;23500;53.268;8.308;2022-09-27T04:02:31;16.80;76.40
37658;DHT22;23500;53.268;8.308;2022-09-27T04:04:56;16.80;76.70
37658;DHT22;23500;53.268;8.308;2022-09-27T04:07:22;16.80;76.50
37658;DHT22;23500;53.268;8.308;2022-09-27T04:09:48;16.80;76.60
37658;DHT22;23500;53.268;8.308;2022-09-27T04:12:14;16.80;76.70
37658;DHT22;23500;53.268;8.308;2022-09-27T04:14:40;16.80;76.70
37658;DHT22;23500;53.268;8.308;2022-09-27T04:17:06;16.80;76.70
37658;DHT22;23500;53.268;8.308;2022-09-27T04:19:31;16.80;76.60
37658;DHT22;23500;53.268;8.308;2022-09-27T04:21:57;16.80;76.60
37658;DHT22;23500;53.268;8.308;2022-09-27T04:24:23;16.80;76.60
37658;DHT22;23500;53.268;8.308;2022-09-27T04:26:49;16.80;76.50
37658;DHT22;23500;53.268;8.308;2022-09-27T04:29:16;16.80;76.60
37658;DHT22;23500;53.268;8.308;2022-09-27T04:31:42;16.80;76.50
37658;DHT22;23500;53.268;8.308;2022-09-27T04:34:09;16.80;76.60
37658;DHT22;23500;53.268;8.308;2022-09-27T04:36:34;16.80;76.60
37658;DHT22;23500;53.268;8.308;2022-09-27T04:39:03;16.80;76.70
37658;DHT22;23500;53.268;8.308;2022-09-27T04:41:29;16.80;76.60
37658;DHT22;23500;53.268;8.308;2022-09-27T04:43:55;16.80;76.70
37658;DHT22;23500;53.268;8.308;2022-09-27T04:46:22;16.80;76.70
37658;DHT22;23500;53.268;8.308;2022-09-27T04:48:49;16.80;76.70
37658;DHT22;23500;53.268;8.308;2022-09-27T04:51:16;16.80;76.80
37658;DHT22;23500;53.268;8.308;2022-09-27T04:53:45;16.80;76.80
37658;DHT22;23500;53.268;8.308;2022-09-27T04:56:12;16.80;76.80
37658;DHT22;23500;53.268;8.308;2022-09-27T04:58:38;16.80;76.80
37658;DHT22;23500;53.268;8.308;2022-09-27T05:01:04;16.80;76.80
37658;DHT22;23500;53.268;8.308;2022-09-27T05:03:30;16.80;76.80
37658;DHT22;23500;53.268;8.308;2022-09-27T05:05:56;16.80;76.80
37658;DHT22;23500;53.268;8.308;2022-09-27T05:08:22;16.80;76.80
37658;DHT22;23500;53.268;8.308;2022-09-27T05:10:48;16.80;76.80
37658;DHT22;23500;53.268;8.308;2022-09-27T05:13:14;16.80;76.80
37658;DHT22;23500;53.268;8.308;2022-09-27T05:15:40;16.80;76.80
37658;DHT22;23500;53.268;8.308;2022-09-27T05:18:07;16.80;76.80
37658;DHT22;23500;53.268;8.308;2022-09-27T05:20:35;16.80;76.80
37658;DHT22;23500;53.268;8.308;2022-09-27T05:23:00;16.80;76.20
37658;DHT22;23500;53.268;8.308;2022-09-27T05:25:27;16.80;76.20
37658;DHT22;23500;53.268;8.308;2022-09-27T05:27:53;16.80;76.50
37658;DHT22;23500;53.268;8.308;2022-09-27T05:30:19;16.80;76.90
37658;DHT22;23500;53.268;8.308;2022-09-27T05:32:45;16.80;77.00
37658;DHT22;23500;53.268;8.308;2022-09-27T05:35:15;16.80;77.00
37658;DHT22;23500;53.268;8.308;2022-09-27T05:37:41;16.80;77.00
37658;DHT22;23500;53.268;8.308;2022-09-27T05:40:07;16.80;77.00
37658;DHT22;23500;53.268;8.308;2022-09-27T05:42:33;16.80;77.00
37658;DHT22;23500;53.268;8.308;2022-09-27T05:45:03;16.80;77.00
37658;DHT22;23500;53.268;8.308;2022-09-27T05:47:29;16.80;77.00
37658;DHT22;23500;53.268;8.308;2022-09-27T05:49:55;16.80;77.00
37658;DHT22;23500;53.268;8.308;2022-09-27T05:52:20;16.80;77.00
37658;DHT22;23500;53.268;8.308;2022-09-27T05:54:46;16.80;77.00
37658;DHT22;23500;53.268;8.308;2022-09-27T05:57:12;16.80;76.90
37658;DHT22;23500;53.268;8.308;2022-09-27T05:59:37;16.80;76.90
37658;DHT22;23500;53.268;8.308;2022-09-27T06:02:03;16.80;77.00
37658;DHT22;23500;53.268;8.308;2022-09-27T06:04:28;16.80;76.90
37658;DHT22;23500;53.268;8.308;2022-09-27T06:06:54;16.80;76.90
37658;DHT22;23500;53.268;8.308;2022-09-27T06:09:23;16.80;76.90
37658;DHT22;23500;53.268;8.308;2022-09-27T06:11:50;16.80;76.90
37658;DHT22;23500;53.268;8.308;2022-09-27T06:14:16;16.90;76.90
37658;DHT22;23500;53.268;8.308;2022-09-27T06:16:41;16.90;76.90
37658;DHT22;23500;53.268;8.308;2022-09-27T06:19:07;16.90;76.90
37658;DHT22;23500;53.268;8.308;2022-09-27T06:21:33;16.90;76.90
37658;DHT22;23500;53.268;8.308;2022-09-27T06:23:59;16.90;76.90
37658;DHT22;23500;53.268;8.308;2022-09-27T06:26:25;16.90;76.90
37658;DHT22;23500;53.268;8.308;2022-09-27T06:28:52;16.90;76.90
37658;DHT22;23500;53.268;8.308;2022-09-27T06:31:19;16.90;76.80
37658;DHT22;23500;53.268;8.308;2022-09-27T06:33:45;16.90;76.80
37658;DHT22;23500;53.268;8.308;2022-09-27T06:36:11;16.90;76.80
37658;DHT22;23500;53.268;8.308;2022-09-27T06:38:37;16.90;76.80
37658;DHT22;23500;53.268;8.308;2022-09-27T06:41:04;16.90;76.80
37658;DHT22;23500;53.268;8.308;2022-09-27T06:43:31;16.90;76.70
37658;DHT22;23500;53.268;8.308;2022-09-27T06:46:01;16.90;76.70
37658;DHT22;23500;53.268;8.308;2022-09-27T06:48:30;16.90;76.70
37658;DHT22;23500;53.268;8.308;2022-09-27T06:50:56;16.90;76.70
37658;DHT22;23500;53.268;8.308;2022-09-27T06:53:22;16.90;76.60
37658;DHT22;23500;53.268;8.308;2022-09-27T06:55:48;16.90;76.60
37658;DHT22;23500;53.268;8.308;2022-09-27T06:58:16;16.90;76.60
37658;DHT22;23500;53.268;8.308;2022-09-27T07:01:00;16.90;76.60
37658;DHT22;23500;53.268;8.308;2022-09-27T07:03:26;17.00;76.60
37658;DHT22;23500;53.268;8.308;2022-09-27T07:06:03;16.90;76.50
37658;DHT22;23500;53.268;8.308;2022-09-27T07:08:30;16.90;76.50
37658;DHT22;23500;53.268;8.308;2022-09-27T07:11:05;16.90;76.60
37658;DHT22;23500;53.268;8.308;2022-09-27T07:13:30;16.90;76.50
37658;DHT22;23500;53.268;8.308;2022-09-27T07:15:59;16.90;76.50
37658;DHT22;23500;53.268;8.308;2022-09-27T07:18:26;17.00;76.50
37658;DHT22;23500;53.268;8.308;2022-09-27T07:20:52;17.00;76.50
37658;DHT22;23500;53.268;8.308;2022-09-27T07:23:18;17.00;76.50
37658;DHT22;23500;53.268;8.308;2022-09-27T07:25:44;17.00;76.40
37658;DHT22;23500;53.268;8.308;2022-09-27T07:28:17;17.00;76.30
37658;DHT22;23500;53.268;8.308;2022-09-27T07:30:43;17.00;76.30
37658;DHT22;23500;53.268;8.308;2022-09-27T07:33:10;17.00;76.30
37658;DHT22;23500;53.268;8.308;2022-09-27T07:35:38;17.00;76.30
37658;DHT22;23500;53.268;8.308;2022-09-27T07:38:05;17.00;76.20
37658;DHT22;23500;53.268;8.308;2022-09-27T07:40:35;17.00;76.20
37658;DHT22;23500;53.268;8.308;2022-09-27T07:43:00;17.00;76.20
37658;DHT22;23500;53.268;8.308;2022-09-27T07:45:27;17.10;76.20
37658;DHT22;23500;53.268;8.308;2022-09-27T07:47:53;17.10;76.10
37658;DHT22;23500;53.268;8.308;2022-09-27T07:50:19;17.10;76.10
37658;DHT22;23500;53.268;8.308;2022-09-27T07:52:47;17.10;76.10
37658;DHT22;23500;53.268;8.308;2022-09-27T07:55:16;17.10;76.10
37658;DHT22;23500;53.268;8.308;2022-09-27T07:57:42;17.10;76.00
37658;DHT22;23500;53.268;8.308;2022-09-27T08:00:12;17.10;76.00
37658;DHT22;23500;53.268;8.308;2022-09-27T08:02:40;17.10;76.10
37658;DHT22;23500;53.268;8.308;2022-09-27T08:05:06;17.10;76.00
37658;DHT22;23500;53.268;8.308;2022-09-27T08:07:32;17.10;76.00
37658;DHT22;23500;53.268;8.308;2022-09-27T08:09:58;17.10;76.70
37658;DHT22;23500;53.268;8.308;2022-09-27T08:12:23;17.10;75.90
37658;DHT22;23500;53.268;8.308;2022-09-27T08:14:49;17.10;75.90
37658;DHT22;23500;53.268;8.308;2022-09-27T08:17:17;17.10;75.90
37658;DHT22;23500;53.268;8.308;2022-09-27T08:19:44;17.10;75.90
37658;DHT22;23500;53.268;8.308;2022-09-27T08:22:13;17.10;75.90
37658;DHT22;23500;53.268;8.308;2022-09-27T08:24:39;17.10;75.90
37658;DHT22;23500;53.268;8.308;2022-09-27T08:27:05;17.10;75.80
37658;DHT22;23500;53.268;8.308;2022-09-27T08:29:32;17.10;75.90
37658;DHT22;23500;53.268;8.308;2022-09-27T08:31:58;17.10;75.80
37658;DHT22;23500;53.268;8.308;2022-09-27T08:34:24;17.10;75.80
37658;DHT22;23500;53.268;8.308;2022-09-27T08:36:49;17.10;75.80
37658;DHT22;23500;53.268;8.308;2022-09-27T08:39:15;17.10;75.80
37658;DHT22;23500;53.268;8.308;2022-09-27T08:47:37;17.10;75.90
37658;DHT22;23500;53.268;8.308;2022-09-27T08:50:59;17.10;75.90
37658;DHT22;23500;53.268;8.308;2022-09-27T08:53:18;17.10;75.90
37658;DHT22;23500;53.268;8.308;2022-09-27T08:55:47;17.10;75.90
37658;DHT22;23500;53.268;8.308;2022-09-27T08:58:30;17.10;75.90
37658;DHT22;23500;53.268;8.308;2022-09-27T09:00:59;17.10;76.00
37658;DHT22;23500;53.268;8.308;2022-09-27T09:03:30;17.10;75.90
37658;DHT22;23500;53.268;8.308;2022-09-27T09:08:36;17.10;75.90
37658;DHT22;23500;53.268;8.308;2022-09-27T09:31:40;17.10;75.90
37658;DHT22;23500;53.268;8.308;2022-09-27T09:34:27;17.10;75.90
37658;DHT22;23500;53.268;8.308;2022-09-27T09:39:46;17.10;75.90
37658;DHT22;23500;53.268;8.308;2022-09-27T09:42:27;17.10;76.00
37658;DHT22;23500;53.268;8.308;2022-09-27T09:45:12;17.10;76.00
37658;DHT22;23500;53.268;8.308;2022-09-27T09:50:38;17.10;76.00
37658;DHT22;23500;53.268;8.308;2022-09-27T09:53:47;17.10;76.00
37658;DHT22;23500;53.268;8.308;2022-09-27T09:56:17;17.10;76.00
37658;DHT22;23500;53.268;8.308;2022-09-27T09:59:00;17.10;76.00
37658;DHT22;23500;53.268;8.308;2022-09-27T10:01:35;17.10;76.00
37658;DHT22;23500;53.268;8.308;2022-09-27T10:04:01;17.10;75.90
37658;DHT22;23500;53.268;8.308;2022-09-27T10:06:28;17.10;75.90
37658;DHT22;23500;53.268;8.308;2022-09-27T10:08:55;17.10;75.90
37658;DHT22;23500;53.268;8.308;2022-09-27T10:11:24;17.10;75.90
37658;DHT22;23500;53.268;8.308;2022-09-27T10:13:51;17.10;75.90
37658;DHT22;23500;53.268;8.308;2022-09-27T10:16:20;17.10;75.90
37658;DHT22;23500;53.268;8.308;2022-09-27T10:18:47;17.10;75.90
37658;DHT22;23500;53.268;8.308;2022-09-27T10:21:23;17.10;75.80
37658;DHT22;23500;53.268;8.308;2022-09-27T10:24:14;17.10;75.70
37658;DHT22;23500;53.268;8.308;2022-09-27T10:26:42;17.10;75.70
37658;DHT22;23500;53.268;8.308;2022-09-27T10:29:31;17.10;75.60
37658;DHT22;23500;53.268;8.308;2022-09-27T10:31:58;17.20;75.60
37658;DHT22;23500;53.268;8.308;2022-09-27T10:34:37;17.20;75.70
37658;DHT22;23500;53.268;8.308;2022-09-27T10:37:06;17.20;75.60
37658;DHT22;23500;53.268;8.308;2022-09-27T10:39:39;17.20;75.60
37658;DHT22;23500;53.268;8.308;2022-09-27T10:42:29;17.20;75.60
37658;DHT22;23500;53.268;8.308;2022-09-27T10:44:56;17.20;75.50
37658;DHT22;23500;53.268;8.308;2022-09-27T10:47:23;17.20;75.50
37658;DHT22;23500;53.268;8.308;2022-09-27T10:49:51;17.20;75.40
37658;DHT22;23500;53.268;8.308;2022-09-27T10:52:23;17.20;75.40
37658;DHT22;23500;53.268;8.308;2022-09-27T10:54:57;17.20;75.40
37658;DHT22;23500;53.268;8.308;2022-09-27T10:57:26;17.20;75.20
37658;DHT22;23500;53.268;8.308;2022-09-27T10:59:58;17.20;75.20
37658;DHT22;23500;53.268;8.308;2022-09-27T11:02:33;17.20;75.20
37658;DHT22;23500;53.268;8.308;2022-09-27T11:05:14;17.20;75.10
37658;DHT22;23500;53.268;8.308;2022-09-27T11:13:39;17.30;75.10
37658;DHT22;23500;53.268;8.308;2022-09-27T11:24:31;17.30;74.90
37658;DHT22;23500;53.268;8.308;2022-09-27T11:29:56;17.30;74.80
37658;DHT22;23500;53.268;8.308;2022-09-27T11:40:57;17.30;74.80
37658;DHT22;23500;53.268;8.308;2022-09-27T11:46:31;17.40;75.60
37658;DHT22;23500;53.268;8.308;2022-09-27T12:05:47;17.40;74.70
37658;DHT22;23500;53.268;8.308;2022-09-27T12:08:30;17.40;74.70
37658;DHT22;23500;53.268;8.308;2022-09-27T12:11:21;17.40;74.80
37658;DHT22;23500;53.268;8.308;2022-09-27T12:14:36;17.40;74.70
37658;DHT22;23500;53.268;8.308;2022-09-27T12:16:38;17.40;74.70
37658;DHT22;23500;53.268;8.308;2022-09-27T12:19:13;17.40;74.70
37658;DHT22;23500;53.268;8.308;2022-09-27T12:21:40;17.40;74.70
37658;DHT22;23500;53.268;8.308;2022-09-27T12:24:17;17.40;74.70
37658;DHT22;23500;53.268;8.308;2022-09-27T12:26:44;17.40;74.70
37658;DHT22;23500;53.268;8.308;2022-09-27T12:34:21;17.50;74.60
37658;DHT22;23500;53.268;8.308;2022-09-27T12:37:15;17.50;74.60
37658;DHT22;23500;53.268;8.308;2022-09-27T12:39:56;17.50;74.60
37658;DHT22;23500;53.268;8.308;2022-09-27T12:42:30;17.50;74.60
37658;DHT22;23500;53.268;8.308;2022-09-27T12:44:57;17.50;74.60
37658;DHT22;23500;53.268;8.308;2022-09-27T12:47:27;17.50;74.60
37658;DHT22;23500;53.268;8.308;2022-09-27T12:50:03;17.50;74.60
37658;DHT22;23500;53.268;8.308;2022-09-27T12:52:38;17.50;74.60
37658;DHT22;23500;53.268;8.308;2022-09-27T13:01:03;17.50;74.50
37658;DHT22;23500;53.268;8.308;2022-09-27T13:11:58;17.50;74.50
37658;DHT22;23500;53.268;8.308;2022-09-27T13:14:28;17.50;74.50
37658;DHT22;23500;53.268;8.308;2022-09-27T13:16:56;17.40;74.40
37658;DHT22;23500;53.268;8.308;2022-09-27T13:19:41;17.50;74.50
37658;DHT22;23500;53.268;8.308;2022-09-27T13:24:54;17.50;74.40
37658;DHT22;23500;53.268;8.308;2022-09-27T13:32:32;17.50;75.10
37658;DHT22;23500;53.268;8.308;2022-09-27T13:35:24;17.50;74.30
37658;DHT22;23500;53.268;8.308;2022-09-27T13:37:57;17.50;74.30
37658;DHT22;23500;53.268;8.308;2022-09-27T13:40:38;17.50;74.30
37658;DHT22;23500;53.268;8.308;2022-09-27T13:48:22;17.50;74.90
37658;DHT22;23500;53.268;8.308;2022-09-27T13:55:58;17.50;74.20
37658;DHT22;23500;53.268;8.308;2022-09-27T14:00:53;17.50;74.30
37658;DHT22;23500;53.268;8.308;2022-09-27T14:03:31;17.50;74.30
37658;DHT22;23500;53.268;8.308;2022-09-27T14:06:05;17.50;74.20
37658;DHT22;23500;53.268;8.308;2022-09-27T14:08:37;17.50;74.30
37658;DHT22;23500;53.268;8.308;2022-09-27T14:11:12;17.40;73.60
37658;DHT22;23500;53.268;8.308;2022-09-27T14:13:40;17.40;73.30
37658;DHT22;23500;53.268;8.308;2022-09-27T14:16:07;17.40;73.50
37658;DHT22;23500;53.268;8.308;2022-09-27T14:18:52;17.40;72.70
37658;DHT22;23500;53.268;8.308;2022-09-27T14:23:44;17.40;71.80
37658;DHT22;23500;53.268;8.308;2022-09-27T14:26:24;17.30;71.30
37658;DHT22;23500;53.268;8.308;2022-09-27T14:28:50;17.30;72.00
37658;DHT22;23500;53.268;8.308;2022-09-27T14:31:23;17.30;72.00
37658;DHT22;23500;53.268;8.308;2022-09-27T14:33:50;17.30;71.90
37658;DHT22;23500;53.268;8.308;2022-09-27T14:36:30;17.30;71.40
37658;DHT22;23500;53.268;8.308;2022-09-27T14:39:38;17.30;71.40
37658;DHT22;23500;53.268;8.308;2022-09-27T14:42:15;17.30;70.80
37658;DHT22;23500;53.268;8.308;2022-09-27T14:44:43;17.30;70.50
37658;DHT22;23500;53.268;8.308;2022-09-27T14:47:21;17.30;70.40
37658;DHT22;23500;53.268;8.308;2022-09-27T14:52:21;17.30;70.60
37658;DHT22;23500;53.268;8.308;2022-09-27T14:55:12;17.30;70.40
37658;DHT22;23500;53.268;8.308;2022-09-27T14:57:39;17.30;71.90
37658;DHT22;23500;53.268;8.308;2022-09-27T15:02:45;17.20;70.40
37658;DHT22;23500;53.268;8.308;2022-09-27T15:05:14;17.20;70.50
37658;DHT22;23500;53.268;8.308;2022-09-27T15:07:41;17.20;71.90
37658;DHT22;23500;53.268;8.308;2022-09-27T15:10:13;17.20;72.60
37658;DHT22;23500;53.268;8.308;2022-09-27T15:12:41;17.20;72.70
37658;DHT22;23500;53.268;8.308;2022-09-27T15:15:11;17.20;73.40
37658;DHT22;23500;53.268;8.308;2022-09-27T15:17:42;17.30;73.90
37658;DHT22;23500;53.268;8.308;2022-09-27T15:22:54;17.30;74.40
37658;DHT22;23500;53.268;8.308;2022-09-27T15:28:04;17.30;74.40
37658;DHT22;23500;53.268;8.308;2022-09-27T15:30:57;17.30;74.40
37658;DHT22;23500;53.268;8.308;2022-09-27T15:33:25;17.30;74.40
37658;DHT22;23500;53.268;8.308;2022-09-27T15:35:55;17.30;74.40
37658;DHT22;23500;53.268;8.308;2022-09-27T15:45:59;17.30;73.50
37658;DHT22;23500;53.268;8.308;2022-09-27T15:48:26;17.30;73.40
37658;DHT22;23500;53.268;8.308;2022-09-27T15:50:52;17.30;74.50
37658;DHT22;23500;53.268;8.308;2022-09-27T15:56:03;17.30;74.30
37658;DHT22;23500;53.268;8.308;2022-09-27T15:58:31;17.30;74.60
37658;DHT22;23500;53.268;8.308;2022-09-27T16:01:00;17.30;74.40
37658;DHT22;23500;53.268;8.308;2022-09-27T16:03:27;17.30;74.50
37658;DHT22;23500;53.268;8.308;2022-09-27T16:05:55;17.30;74.70
37658;DHT22;23500;53.268;8.308;2022-09-27T16:08:22;17.30;74.60
37658;DHT22;23500;53.268;8.308;2022-09-27T16:10:50;17.30;74.60
37658;DHT22;23500;53.268;8.308;2022-09-27T16:13:16;17.30;74.70
37658;DHT22;23500;53.268;8.308;2022-09-27T16:15:43;17.30;74.80
37658;DHT22;23500;53.268;8.308;2022-09-27T16:18:09;17.30;74.80
37658;DHT22;23500;53.268;8.308;2022-09-27T16:20:35;17.20;73.80
37658;DHT22;23500;53.268;8.308;2022-09-27T16:23:01;17.20;74.50
37658;DHT22;23500;53.268;8.308;2022-09-27T16:25:27;17.20;74.70
37658;DHT22;23500;53.268;8.308;2022-09-27T16:27:56;17.20;74.40
37658;DHT22;23500;53.268;8.308;2022-09-27T16:30:22;17.20;74.80
37658;DHT22;23500;53.268;8.308;2022-09-27T16:32:48;17.20;73.90
37658;DHT22;23500;53.268;8.308;2022-09-27T16:35:15;17.20;74.00
37658;DHT22;23500;53.268;8.308;2022-09-27T16:37:42;17.20;73.60
37658;DHT22;23500;53.268;8.308;2022-09-27T16:40:09;17.20;73.00
37658;DHT22;23500;53.268;8.308;2022-09-27T16:42:35;17.20;74.20
37658;DHT22;23500;53.268;8.308;2022-09-27T16:45:02;17.20;73.90
37658;DHT22;23500;53.268;8.308;2022-09-27T16:47:28;17.20;72.20
37658;DHT22;23500;53.268;8.308;2022-09-27T16:49:54;17.20;72.00
37658;DHT22;23500;53.268;8.308;2022-09-27T16:52:38;17.10;72.10
37658;DHT22;23500;53.268;8.308;2022-09-27T16:55:04;17.10;71.20
37658;DHT22;23500;53.268;8.308;2022-09-27T16:57:33;17.10;71.30
37658;DHT22;23500;53.268;8.308;2022-09-27T16:59:59;17.10;72.10
37658;DHT22;23500;53.268;8.308;2022-09-27T17:02:25;17.10;71.40
37658;DHT22;23500;53.268;8.308;2022-09-27T17:04:52;17.10;72.10
37658;DHT22;23500;53.268;8.308;2022-09-27T17:07:18;17.00;71.60
37658;DHT22;23500;53.268;8.308;2022-09-27T17:09:44;17.00;71.50
37658;DHT22;23500;53.268;8.308;2022-09-27T17:12:10;17.00;71.90
37658;DHT22;23500;53.268;8.308;2022-09-27T17:14:36;17.00;73.20
37658;DHT22;23500;53.268;8.308;2022-09-27T17:17:02;17.00;73.40
37658;DHT22;23500;53.268;8.308;2022-09-27T17:19:27;17.00;72.80
37658;DHT22;23500;53.268;8.308;2022-09-27T17:21:53;17.00;73.10
37658;DHT22;23500;53.268;8.308;2022-09-27T17:24:22;17.00;72.90
37658;DHT22;23500;53.268;8.308;2022-09-27T17:26:47;17.00;72.70
37658;DHT22;23500;53.268;8.308;2022-09-27T17:29:13;17.00;72.00
37658;DHT22;23500;53.268;8.308;2022-09-27T17:31:39;17.00;72.70
37658;DHT22;23500;53.268;8.308;2022-09-27T17:34:07;17.00;72.40
37658;DHT22;23500;53.268;8.308;2022-09-27T17:36:38;16.90;72.10
37658;DHT22;23500;53.268;8.308;2022-09-27T17:39:06;16.90;71.60
37658;DHT22;23500;53.268;8.308;2022-09-27T17:41:31;16.90;71.10
37658;DHT22;23500;53.268;8.308;2022-09-27T17:43:59;16.90;70.70
37658;DHT22;23500;53.268;8.308;2022-09-27T17:46:29;16.90;70.20
37658;DHT22;23500;53.268;8.308;2022-09-27T17:48:55;16.80;70.10
37658;DHT22;23500;53.268;8.308;2022-09-27T17:51:41;16.80;70.70
37658;DHT22;23500;53.268;8.308;2022-09-27T17:54:08;16.80;70.30
37658;DHT22;23500;53.268;8.308;2022-09-27T17:56:41;16.70;69.90
37658;DHT22;23500;53.268;8.308;2022-09-27T17:59:08;16.70;70.70
37658;DHT22;23500;53.268;8.308;2022-09-27T18:01:35;16.70;70.50
37658;DHT22;23500;53.268;8.308;2022-09-27T18:04:06;16.60;70.70
37658;DHT22;23500;53.268;8.308;2022-09-27T18:06:37;16.60;70.60
37658;DHT22;23500;53.268;8.308;2022-09-27T18:09:05;16.60;70.70
37658;DHT22;23500;53.268;8.308;2022-09-27T18:11:33;16.60;71.20
37658;DHT22;23500;53.268;8.308;2022-09-27T18:13:59;16.60;71.50
37658;DHT22;23500;53.268;8.308;2022-09-27T18:16:30;16.60;71.70
37658;DHT22;23500;53.268;8.308;2022-09-27T18:19:00;16.60;72.80
37658;DHT22;23500;53.268;8.308;2022-09-27T18:21:26;16.60;72.80
37658;DHT22;23500;53.268;8.308;2022-09-27T18:23:57;16.60;72.00
37658;DHT22;23500;53.268;8.308;2022-09-27T18:26:24;16.60;72.70
37658;DHT22;23500;53.268;8.308;2022-09-27T18:28:52;16.60;71.40
37658;DHT22;23500;53.268;8.308;2022-09-27T18:31:20;16.60;71.10
37658;DHT22;23500;53.268;8.308;2022-09-27T18:33:47;16.60;70.90
37658;DHT22;23500;53.268;8.308;2022-09-27T18:36:18;16.50;70.30
37658;DHT22;23500;53.268;8.308;2022-09-27T18:38:45;16.50;70.50
37658;DHT22;23500;53.268;8.308;2022-09-27T18:41:18;16.50;70.80
37658;DHT22;23500;53.268;8.308;2022-09-27T18:43:45;16.50;70.70
37658;DHT22;23500;53.268;8.308;2022-09-27T18:46:14;16.50;71.90
37658;DHT22;23500;53.268;8.308;2022-09-27T18:48:40;16.50;72.10
37658;DHT22;23500;53.268;8.308;2022-09-27T18:51:08;16.40;71.80
37658;DHT22;23500;53.268;8.308;2022-09-27T18:53:35;16.50;71.10
37658;DHT22;23500;53.268;8.308;2022-09-27T18:56:09;16.50;71.00
37658;DHT22;23500;53.268;8.308;2022-09-27T18:58:36;16.40;70.60
37658;DHT22;23500;53.268;8.308;2022-09-27T19:01:06;16.40;70.70